createdAt,value
2022-12-06T00:03:39.650Z,83.49
2022-12-06T00:08:42.113Z,83.33
2022-12-06T00:13:44.405Z,83.52
2022-12-06T00:18:46.908Z,83.28
2022-12-06T00:23:54.595Z,83.42
2022-12-06T00:28:58.960Z,83.42
2022-12-06T00:34:00.962Z,83.33
2022-12-06T00:39:06.600Z,83.38
2022-12-06T00:44:08.967Z,83.36
2022-12-06T00:49:11.054Z,83.14
2022-12-06T00:54:14.565Z,83.34
2022-12-06T00:59:16.602Z,83.46
2022-12-06T01:04:18.389Z,83.39
2022-12-06T01:09:20.243Z,83.26
2022-12-06T01:14:22.029Z,83.38
2022-12-06T01:19:23.861Z,83.15
2022-12-06T01:24:25.626Z,83.37
2022-12-06T01:29:27.399Z,83.20
2022-12-06T01:34:29.335Z,83.26
2022-12-06T01:39:31.243Z,83.12
2022-12-06T01:44:45.698Z,83.31
2022-12-06T01:49:59.329Z,83.24
2022-12-06T01:55:02.981Z,83.18
2022-12-06T02:00:05.835Z,83.18
2022-12-06T02:05:13.548Z,83.15
2022-12-06T02:10:15.271Z,83.24
2022-12-06T02:15:17.155Z,83.37
2022-12-06T02:20:36.956Z,83.21
2022-12-06T02:26:07.285Z,83.17
2022-12-06T02:31:27.324Z,83.30
2022-12-06T02:36:37.494Z,83.39
2022-12-06T02:41:44.220Z,83.15
2022-12-06T02:46:48.206Z,83.22
2022-12-06T02:51:53.022Z,83.35
2022-12-06T02:56:56.208Z,83.37
2022-12-06T03:02:03.765Z,83.23
2022-12-06T03:07:14.556Z,83.33
2022-12-06T03:12:32.513Z,83.29
2022-12-06T03:17:47.591Z,83.29
2022-12-06T03:22:54.677Z,83.30
2022-12-06T03:27:58.831Z,83.05
2022-12-06T03:33:02.352Z,83.25
2022-12-06T03:38:22.092Z,83.36
2022-12-06T03:43:24.373Z,83.23
2022-12-06T03:48:49.361Z,83.26
2022-12-06T03:53:54.319Z,83.30
2022-12-06T03:58:56.175Z,83.23
2022-12-06T04:03:58.502Z,83.28
2022-12-06T04:09:19.266Z,83.30
2022-12-06T04:14:21.054Z,83.30
2022-12-06T04:19:22.958Z,83.09
2022-12-06T04:24:24.803Z,82.93
2022-12-06T04:29:44.886Z,83.15
2022-12-06T04:35:05.265Z,83.11
2022-12-06T04:40:07.858Z,83.27
2022-12-06T04:45:09.912Z,82.92
2022-12-06T04:50:11.655Z,83.16
2022-12-06T04:55:13.386Z,83.08
2022-12-06T05:00:15.738Z,83.03
2022-12-06T05:05:17.482Z,82.91
2022-12-06T05:10:19.486Z,82.92
2022-12-06T05:15:22.875Z,82.87
2022-12-06T05:20:27.392Z,82.98
2022-12-06T05:25:29.618Z,83.14
2022-12-06T05:30:31.672Z,82.82
2022-12-06T05:35:33.853Z,82.97
2022-12-06T05:40:35.675Z,83.01
2022-12-06T05:45:38.627Z,82.70
2022-12-06T05:50:40.462Z,82.69
2022-12-06T05:55:43.204Z,82.70
2022-12-06T06:00:51.302Z,82.83
2022-12-06T06:05:57.763Z,82.54
2022-12-06T06:11:00.375Z,82.69
2022-12-06T06:16:02.269Z,82.88
2022-12-06T06:21:04.837Z,82.87
2022-12-06T06:26:08.775Z,82.67
2022-12-06T06:31:10.961Z,82.59
2022-12-06T06:36:13.005Z,82.72
2022-12-06T06:41:14.843Z,82.92
2022-12-06T06:46:16.866Z,82.80
2022-12-06T06:51:18.794Z,82.79
2022-12-06T06:56:20.531Z,83.13
2022-12-06T07:01:24.233Z,82.77
2022-12-06T07:06:26.132Z,82.90
2022-12-06T07:11:27.968Z,82.70
2022-12-06T07:16:29.989Z,82.72
2022-12-06T07:21:31.862Z,83.06
2022-12-06T07:26:33.590Z,82.98
2022-12-06T07:31:35.649Z,82.90
2022-12-06T07:36:37.612Z,82.94
2022-12-06T07:41:58.327Z,82.98
2022-12-06T07:47:25.644Z,82.89
2022-12-06T07:52:32.285Z,82.76
2022-12-06T07:57:37.347Z,82.82
2022-12-06T08:02:42.624Z,82.85
2022-12-06T08:07:44.936Z,83.00
2022-12-06T08:12:46.763Z,82.88
2022-12-06T08:17:48.652Z,82.96
2022-12-06T08:23:02.573Z,82.93
2022-12-06T08:28:04.647Z,83.09
2022-12-06T08:33:06.560Z,82.77
2022-12-06T08:38:08.442Z,83.08
2022-12-06T08:43:10.486Z,82.91
2022-12-06T08:48:12.232Z,82.94
2022-12-06T08:53:14.143Z,82.88
2022-12-06T08:58:16.026Z,83.14
2022-12-06T09:03:17.786Z,83.11
2022-12-06T09:08:19.647Z,82.98
2022-12-06T09:13:21.627Z,82.64
2022-12-06T09:18:23.792Z,82.88
2022-12-06T09:23:25.936Z,82.65
2022-12-06T09:28:29.444Z,82.99
2022-12-06T09:33:31.900Z,82.86
2022-12-06T09:38:38.438Z,82.90
2022-12-06T09:43:53.048Z,83.02
2022-12-06T09:49:18.967Z,83.03
2022-12-06T09:54:33.876Z,82.84
2022-12-06T09:59:50.553Z,82.90
2022-12-06T10:05:15.772Z,82.97
2022-12-06T10:10:50.898Z,82.82
2022-12-06T10:15:59.937Z,82.77
2022-12-06T10:21:24.136Z,83.03
2022-12-06T10:26:51.709Z,83.03
2022-12-06T10:31:58.381Z,82.78
2022-12-06T10:37:20.266Z,82.86
2022-12-06T10:42:52.254Z,82.82
2022-12-06T10:47:59.455Z,82.75
2022-12-06T10:53:06.703Z,82.71
2022-12-06T10:58:28.373Z,82.48
2022-12-06T11:03:32.900Z,82.52
2022-12-06T11:08:42.256Z,82.57
2022-12-06T11:13:48.287Z,82.20
2022-12-06T11:18:50.706Z,82.26
2022-12-06T11:24:02.425Z,82.00
2022-12-06T11:29:10.184Z,81.92
2022-12-06T11:34:27.273Z,82.00
2022-12-06T11:39:31.144Z,81.96
2022-12-06T11:44:49.294Z,81.81
2022-12-06T11:49:55.352Z,81.63
2022-12-06T11:55:02.438Z,81.68
2022-12-06T12:00:20.519Z,81.52
2022-12-06T12:05:31.014Z,81.48
2022-12-06T12:10:38.933Z,81.19
2022-12-06T12:15:48.318Z,81.33
2022-12-06T12:20:50.486Z,81.21
2022-12-06T12:26:09.862Z,81.52
2022-12-06T12:31:19.809Z,81.30
2022-12-06T12:36:28.301Z,81.22
2022-12-06T12:41:38.902Z,81.25
2022-12-06T12:46:44.333Z,81.19
2022-12-06T12:51:48.047Z,81.14
2022-12-06T12:56:51.325Z,80.96
2022-12-06T13:02:11.782Z,80.96
2022-12-06T13:07:16.435Z,80.98
2022-12-06T13:12:33.479Z,80.92
2022-12-06T13:17:37.806Z,80.84
2022-12-06T13:22:45.338Z,80.82
2022-12-06T13:27:52.803Z,80.85
2022-12-06T13:33:25.822Z,80.91
2022-12-06T13:38:38.973Z,81.10
2022-12-06T13:43:40.703Z,80.84
2022-12-06T13:48:57.076Z,81.13
2022-12-06T13:54:05.342Z,81.00
2022-12-06T13:59:12.913Z,81.08
2022-12-06T14:09:46.975Z,81.01
2022-12-06T14:15:00.270Z,81.20
2022-12-06T14:20:04.030Z,81.19
2022-12-06T14:25:18.755Z,81.18
2022-12-06T14:30:25.683Z,81.18
2022-12-06T14:35:30.535Z,81.22
2022-12-06T14:41:00.326Z,81.32
2022-12-06T14:46:05.807Z,81.26
2022-12-06T14:51:23.615Z,81.28
2022-12-06T14:56:30.970Z,81.16
2022-12-06T15:01:32.971Z,81.23
2022-12-06T15:06:37.088Z,81.21
2022-12-06T15:12:01.241Z,81.33
2022-12-06T15:17:09.125Z,81.17
2022-12-06T15:22:18.736Z,81.20
2022-12-06T15:27:27.036Z,81.01
2022-12-06T15:32:29.003Z,80.95
2022-12-06T15:37:38.629Z,80.95
2022-12-06T15:42:41.062Z,81.14
2022-12-06T15:47:42.830Z,81.22
2022-12-06T15:52:47.223Z,81.11
2022-12-06T15:57:49.104Z,81.16
2022-12-06T16:02:50.883Z,80.83
2022-12-06T16:07:52.715Z,80.92
2022-12-06T16:13:13.102Z,81.19
2022-12-06T16:18:15.039Z,80.79
2022-12-06T16:24:11.838Z,81.12
2022-12-06T16:29:06.145Z,81.11
2022-12-06T16:34:08.190Z,80.96
2022-12-06T16:39:10.838Z,80.93
2022-12-06T16:44:12.698Z,80.97
2022-12-06T16:54:46.610Z,81.04
2022-12-06T16:59:48.621Z,81.23
2022-12-06T17:04:50.371Z,81.07
2022-12-06T17:09:52.684Z,81.08
2022-12-06T17:14:54.608Z,81.21
2022-12-06T17:19:56.835Z,81.18
2022-12-06T17:25:00.264Z,81.18
2022-12-06T17:30:02.632Z,80.97
2022-12-06T17:35:05.107Z,81.21
2022-12-06T17:40:07.825Z,81.16
2022-12-06T17:45:09.673Z,81.09
2022-12-06T17:50:11.654Z,81.35
2022-12-06T17:55:14.299Z,81.18
2022-12-06T18:00:16.609Z,81.20
2022-12-06T18:05:18.439Z,81.15
2022-12-06T18:10:20.260Z,81.25
2022-12-06T18:15:41.557Z,81.12
2022-12-06T18:20:44.082Z,81.27
2022-12-06T18:25:46.147Z,81.24
2022-12-06T18:30:47.969Z,81.34
2022-12-06T18:35:55.089Z,81.38
2022-12-06T18:41:11.615Z,81.30
2022-12-06T18:46:21.427Z,81.26
2022-12-06T18:51:26.129Z,81.54
2022-12-06T18:56:30.254Z,81.49
2022-12-06T19:01:34.626Z,81.48
2022-12-06T19:06:38.238Z,81.43
2022-12-06T19:11:42.690Z,81.69
2022-12-06T19:16:48.361Z,81.50
2022-12-06T19:21:52.614Z,81.51
2022-12-06T19:26:55.734Z,81.47
2022-12-06T19:31:57.732Z,81.89
2022-12-06T19:36:59.526Z,81.78
2022-12-06T19:42:19.782Z,81.88
2022-12-06T19:47:21.667Z,81.88
2022-12-06T19:52:29.302Z,81.70
2022-12-06T19:57:32.827Z,81.92
2022-12-06T20:02:35.069Z,81.71
2022-12-06T20:07:37.044Z,81.97
2022-12-06T20:12:38.846Z,81.94
2022-12-06T20:17:41.082Z,82.12
2022-12-06T20:22:43.120Z,82.04
2022-12-06T20:27:51.064Z,82.00
2022-12-06T20:32:52.684Z,81.85
2022-12-06T20:37:54.384Z,81.96
2022-12-06T20:42:56.153Z,82.07
2022-12-06T20:47:58.031Z,82.07
2022-12-06T20:52:59.866Z,82.16
2022-12-06T20:58:01.652Z,82.01
2022-12-06T21:03:03.571Z,82.10
2022-12-06T21:08:05.794Z,82.27
2022-12-06T21:13:07.634Z,82.23
2022-12-06T21:18:09.401Z,82.09
2022-12-06T21:23:11.178Z,82.25
2022-12-06T21:28:13.003Z,82.27
2022-12-06T21:33:14.684Z,82.27
2022-12-06T21:38:17.197Z,82.35
2022-12-06T21:43:18.979Z,82.37
2022-12-06T21:48:20.674Z,82.23
2022-12-06T21:53:22.453Z,82.35
2022-12-06T21:58:24.947Z,82.54
2022-12-06T22:03:26.851Z,82.58
2022-12-06T22:08:28.636Z,82.66
2022-12-06T22:13:30.362Z,82.50
2022-12-06T22:18:32.646Z,82.47
2022-12-06T22:23:35.229Z,82.49
2022-12-06T22:28:37.040Z,82.53
2022-12-06T22:33:39.062Z,82.54
2022-12-06T22:38:40.926Z,82.56
2022-12-06T22:43:42.732Z,82.70
2022-12-06T22:48:45.262Z,82.64
2022-12-06T22:53:51.854Z,82.79
2022-12-06T22:58:55.484Z,82.91
2022-12-06T23:04:00.127Z,82.99
2022-12-06T23:09:02.594Z,83.12
2022-12-06T23:14:04.816Z,83.16
2022-12-06T23:19:06.665Z,83.12
2022-12-06T23:24:11.822Z,83.30
2022-12-06T23:29:15.463Z,83.39
2022-12-06T23:34:26.144Z,83.36
2022-12-06T23:39:28.091Z,83.54
2022-12-06T23:44:29.917Z,83.24
2022-12-06T23:49:31.858Z,83.42
2022-12-06T23:54:33.663Z,83.36
2022-12-06T23:59:35.483Z,83.38
